createdAt,value
2023-02-07T00:01:37.692Z,0.75
2023-02-07T00:04:08.712Z,0.72
2023-02-07T00:06:38.020Z,0.71
2023-02-07T00:09:08.714Z,0.68
2023-02-07T00:11:40.579Z,0.64
2023-02-07T00:14:12.388Z,0.62
2023-02-07T00:16:41.683Z,0.59
2023-02-07T00:19:10.360Z,0.56
2023-02-07T00:21:39.168Z,0.53
2023-02-07T00:24:07.860Z,0.51
2023-02-07T00:26:36.321Z,0.50
2023-02-07T00:29:05.114Z,0.47
2023-02-07T00:31:36.366Z,0.45
2023-02-07T00:34:07.059Z,0.43
2023-02-07T00:36:37.054Z,0.40
2023-02-07T00:39:07.507Z,0.39
2023-02-07T00:41:36.006Z,0.37
2023-02-07T00:44:05.081Z,0.36
2023-02-07T00:46:35.379Z,0.34
2023-02-07T00:49:04.870Z,0.30
2023-02-07T00:51:34.142Z,0.30
2023-02-07T00:54:02.756Z,0.27
2023-02-07T00:56:31.783Z,0.24
2023-02-07T00:59:00.471Z,0.22
2023-02-07T01:01:29.011Z,0.20
2023-02-07T01:03:59.753Z,0.19
2023-02-07T01:06:29.540Z,0.17
2023-02-07T01:08:59.118Z,0.15
2023-02-07T01:11:29.882Z,0.13
2023-02-07T01:14:00.456Z,0.10
2023-02-07T01:16:31.797Z,0.08
2023-02-07T01:19:02.654Z,0.06
2023-02-07T01:21:31.416Z,0.02
2023-02-07T01:23:59.875Z,-0.01
2023-02-07T01:26:29.016Z,-0.04
2023-02-07T01:28:57.804Z,-0.06
2023-02-07T01:31:26.806Z,-0.08
2023-02-07T01:33:56.083Z,-0.10
2023-02-07T01:36:26.820Z,-0.12
2023-02-07T01:38:56.310Z,-0.13
2023-02-07T01:41:26.169Z,-0.15
2023-02-07T01:43:56.527Z,-0.16
2023-02-07T01:46:25.403Z,-0.18
2023-02-07T01:48:56.006Z,-0.22
2023-02-07T01:51:27.741Z,-0.24
2023-02-07T01:54:00.964Z,-0.25
2023-02-07T01:56:32.232Z,-0.27
2023-02-07T01:59:02.545Z,-0.26
2023-02-07T02:01:31.233Z,-0.28
2023-02-07T02:03:59.679Z,-0.30
2023-02-07T02:06:32.927Z,-0.33
2023-02-07T02:09:03.365Z,-0.34
2023-02-07T02:12:08.480Z,-0.35
2023-02-07T02:14:57.083Z,-0.38
2023-02-07T02:17:31.909Z,-0.40
2023-02-07T02:20:38.514Z,-0.42
2023-02-07T02:23:26.024Z,-0.46
2023-02-07T02:26:31.725Z,-0.49
2023-02-07T02:29:42.418Z,-0.51
2023-02-07T02:32:52.410Z,-0.54
2023-02-07T02:35:33.514Z,-0.55
2023-02-07T02:38:17.810Z,-0.56
2023-02-07T02:40:53.940Z,-0.56
2023-02-07T02:43:32.869Z,-0.57
2023-02-07T02:46:07.831Z,-0.59
2023-02-07T02:48:38.032Z,-0.61
2023-02-07T02:51:08.798Z,-0.66
2023-02-07T02:53:38.633Z,-0.69
2023-02-07T02:56:43.999Z,-0.72
2023-02-07T02:59:38.032Z,-0.76
2023-02-07T03:02:18.537Z,-0.78
2023-02-07T03:05:07.007Z,-0.82
2023-02-07T03:07:48.876Z,-0.85
2023-02-07T03:10:26.578Z,-0.88
2023-02-07T03:12:59.989Z,-0.91
2023-02-07T03:15:37.695Z,-0.92
2023-02-07T03:18:11.590Z,-0.94
2023-02-07T03:20:44.554Z,-0.96
2023-02-07T03:23:17.628Z,-0.99
2023-02-07T03:25:48.334Z,-1.00
2023-02-07T03:28:19.602Z,-1.02
2023-02-07T03:30:50.402Z,-1.04
2023-02-07T03:33:20.617Z,-1.04
2023-02-07T03:35:58.575Z,-1.07
2023-02-07T03:38:28.392Z,-1.09
2023-02-07T03:41:01.722Z,-1.13
2023-02-07T03:43:33.520Z,-1.14
2023-02-07T03:46:02.135Z,-1.15
2023-02-07T03:48:30.572Z,-1.16
2023-02-07T03:50:59.003Z,-1.18
2023-02-07T03:53:34.190Z,-1.21
2023-02-07T03:56:02.586Z,-1.23
2023-02-07T03:58:31.019Z,-1.24
2023-02-07T04:00:59.417Z,-1.26
2023-02-07T04:03:28.078Z,-1.26
2023-02-07T04:05:56.686Z,-1.27
2023-02-07T04:08:25.034Z,-1.28
2023-02-07T04:11:02.943Z,-1.32
2023-02-07T04:13:31.926Z,-1.33
2023-02-07T04:16:00.663Z,-1.36
2023-02-07T04:18:29.136Z,-1.40
2023-02-07T04:21:03.159Z,-1.41
2023-02-07T04:23:31.547Z,-1.42
2023-02-07T04:26:01.771Z,-1.44
2023-02-07T04:28:30.586Z,-1.44
2023-02-07T04:30:58.965Z,-1.45
2023-02-07T04:33:27.413Z,-1.46
2023-02-07T04:35:56.831Z,-1.47
2023-02-07T04:38:25.501Z,-1.49
2023-02-07T04:40:54.807Z,-1.51
2023-02-07T04:43:24.562Z,-1.52
2023-02-07T04:45:52.971Z,-1.52
2023-02-07T04:48:21.628Z,-1.54
2023-02-07T04:50:50.195Z,-1.55
2023-02-07T04:53:18.624Z,-1.57
2023-02-07T04:55:49.345Z,-1.57
2023-02-07T04:58:17.775Z,-1.58
2023-02-07T05:00:47.700Z,-1.60
2023-02-07T05:03:16.907Z,-1.60
2023-02-07T05:05:46.235Z,-1.62
2023-02-07T05:08:15.043Z,-1.62
2023-02-07T05:10:43.428Z,-1.62
2023-02-07T05:13:11.771Z,-1.62
2023-02-07T05:15:40.483Z,-1.63
2023-02-07T05:18:10.361Z,-1.62
2023-02-07T05:20:38.715Z,-1.63
2023-02-07T05:23:07.053Z,-1.63
2023-02-07T05:25:35.575Z,-1.62
2023-02-07T05:28:04.261Z,-1.62
2023-02-07T05:30:32.849Z,-1.59
2023-02-07T05:33:06.266Z,-1.59
2023-02-07T05:35:38.328Z,-1.57
2023-02-07T05:38:08.728Z,-1.57
2023-02-07T05:40:38.273Z,-1.56
2023-02-07T05:43:07.220Z,-1.54
2023-02-07T05:45:36.437Z,-1.53
2023-02-07T05:48:05.485Z,-1.50
2023-02-07T05:50:34.075Z,-1.49
2023-02-07T05:53:12.912Z,-1.47
2023-02-07T05:55:42.362Z,-1.47
2023-02-07T05:58:10.652Z,-1.46
2023-02-07T06:00:39.032Z,-1.44
2023-02-07T06:03:07.391Z,-1.46
2023-02-07T06:05:36.080Z,-1.47
2023-02-07T06:08:04.933Z,-1.47
2023-02-07T06:10:35.788Z,-1.47
2023-02-07T06:13:04.115Z,-1.47
2023-02-07T06:15:32.580Z,-1.47
2023-02-07T06:18:00.974Z,-1.47
2023-02-07T06:20:29.419Z,-1.46
2023-02-07T06:22:57.809Z,-1.46
2023-02-07T06:25:26.226Z,-1.47
2023-02-07T06:27:55.995Z,-1.45
2023-02-07T06:30:24.477Z,-1.45
2023-02-07T06:32:52.853Z,-1.45
2023-02-07T06:35:21.250Z,-1.43
2023-02-07T06:37:49.619Z,-1.43
2023-02-07T06:40:18.395Z,-1.43
2023-02-07T06:42:46.987Z,-1.41
2023-02-07T06:45:16.825Z,-1.41
2023-02-07T06:47:45.204Z,-1.40
2023-02-07T06:50:13.709Z,-1.40
2023-02-07T06:52:42.074Z,-1.39
2023-02-07T06:55:10.533Z,-1.39
2023-02-07T06:57:38.856Z,-1.39
2023-02-07T07:00:08.124Z,-1.39
2023-02-07T07:02:38.054Z,-1.39
2023-02-07T07:05:06.681Z,-1.40
2023-02-07T07:07:35.078Z,-1.41
2023-02-07T07:10:03.544Z,-1.40
2023-02-07T07:12:32.051Z,-1.40
2023-02-07T07:15:00.397Z,-1.41
2023-02-07T07:17:29.680Z,-1.40
2023-02-07T07:19:59.814Z,-1.41
2023-02-07T07:22:28.136Z,-1.41
2023-02-07T07:24:56.485Z,-1.41
2023-02-07T07:27:24.930Z,-1.41
2023-02-07T07:29:53.404Z,-1.41
2023-02-07T07:32:33.316Z,-1.41
2023-02-07T07:35:03.866Z,-1.41
2023-02-07T07:37:32.815Z,-1.39
2023-02-07T07:40:01.311Z,-1.37
2023-02-07T07:42:29.719Z,-1.34
2023-02-07T07:45:21.589Z,-1.32
2023-02-07T07:47:50.025Z,-1.27
2023-02-07T07:50:19.954Z,-1.25
2023-02-07T07:52:48.325Z,-1.23
2023-02-07T07:55:16.868Z,-1.20
2023-02-07T07:57:45.237Z,-1.17
2023-02-07T08:00:15.136Z,-1.16
2023-02-07T08:02:44.932Z,-1.13
2023-02-07T08:05:13.885Z,-1.12
2023-02-07T08:07:43.718Z,-1.10
2023-02-07T08:10:12.170Z,-1.06
2023-02-07T08:12:42.646Z,-1.03
2023-02-07T08:15:13.874Z,-1.00
2023-02-07T08:17:42.320Z,-0.97
2023-02-07T08:20:12.463Z,-0.94
2023-02-07T08:22:41.225Z,-0.91
2023-02-07T08:25:11.430Z,-0.86
2023-02-07T08:27:39.895Z,-0.82
2023-02-07T08:30:11.088Z,-0.77
2023-02-07T08:32:40.322Z,-0.73
2023-02-07T08:35:09.696Z,-0.68
2023-02-07T08:37:39.491Z,-0.63
2023-02-07T08:40:09.087Z,-0.58
2023-02-07T08:42:38.800Z,-0.53
2023-02-07T08:45:07.884Z,-0.48
2023-02-07T08:47:36.470Z,-0.44
2023-02-07T08:50:05.833Z,-0.39
2023-02-07T08:52:36.837Z,-0.35
2023-02-07T08:55:05.878Z,-0.29
2023-02-07T08:57:34.253Z,-0.23
2023-02-07T09:00:07.095Z,-0.19
2023-02-07T09:02:36.470Z,-0.13
2023-02-07T09:05:05.022Z,-0.08
2023-02-07T09:07:33.630Z,-0.03
2023-02-07T09:10:02.793Z,0.02
2023-02-07T09:12:32.125Z,0.07
2023-02-07T09:15:00.598Z,0.13
2023-02-07T09:17:33.412Z,0.17
2023-02-07T09:20:01.790Z,0.24
2023-02-07T09:22:31.539Z,0.28
2023-02-07T09:25:00.311Z,0.34
2023-02-07T09:27:28.913Z,0.40
2023-02-07T09:29:57.275Z,0.46
2023-02-07T09:32:25.663Z,0.52
2023-02-07T09:34:55.342Z,0.58
2023-02-07T09:37:23.682Z,0.67
2023-02-07T09:39:52.161Z,0.72
2023-02-07T09:42:28.557Z,0.81
2023-02-07T09:45:02.248Z,0.87
2023-02-07T09:47:32.631Z,0.94
2023-02-07T09:50:07.081Z,1.04
2023-02-07T09:52:40.752Z,1.11
2023-02-07T09:55:19.085Z,1.19
2023-02-07T09:57:50.172Z,1.26
2023-02-07T10:00:24.168Z,1.33
2023-02-07T10:02:58.684Z,1.40
2023-02-07T10:05:34.769Z,1.47
2023-02-07T10:08:03.104Z,1.54
2023-02-07T10:10:37.315Z,1.60
2023-02-07T10:13:28.852Z,1.67
2023-02-07T10:16:11.363Z,1.75
2023-02-07T10:18:47.643Z,1.82
2023-02-07T10:21:28.234Z,1.89
2023-02-07T10:24:20.225Z,1.97
2023-02-07T10:26:54.132Z,2.05
2023-02-07T10:29:43.604Z,2.10
2023-02-07T10:32:15.884Z,2.17
2023-02-07T10:34:48.492Z,2.24
2023-02-07T10:37:22.959Z,2.30
2023-02-07T10:40:01.254Z,2.37
2023-02-07T10:42:32.612Z,2.43
2023-02-07T10:45:01.566Z,2.48
2023-02-07T10:47:33.996Z,2.55
2023-02-07T10:50:09.378Z,2.62
2023-02-07T10:52:45.127Z,2.68
2023-02-07T10:55:18.945Z,2.75
2023-02-07T10:58:02.822Z,2.81
2023-02-07T11:00:37.227Z,2.87
2023-02-07T11:03:07.331Z,2.93
2023-02-07T11:05:41.435Z,3.00
2023-02-07T11:08:23.887Z,3.06
2023-02-07T11:11:29.714Z,3.15
2023-02-07T11:14:03.055Z,3.22
2023-02-07T11:17:01.049Z,3.31
2023-02-07T11:19:52.925Z,3.39
2023-02-07T11:22:29.723Z,3.48
2023-02-07T11:25:04.947Z,3.54
2023-02-07T11:27:38.803Z,3.60
2023-02-07T11:30:11.178Z,3.67
2023-02-07T11:32:40.163Z,3.74
2023-02-07T11:35:10.611Z,3.81
2023-02-07T11:37:42.041Z,3.89
2023-02-07T11:40:23.423Z,3.97
2023-02-07T11:42:59.436Z,4.05
2023-02-07T11:45:29.364Z,4.11
2023-02-07T11:47:59.969Z,4.18
2023-02-07T11:50:31.156Z,4.21
2023-02-07T11:53:01.322Z,4.21
2023-02-07T11:55:35.148Z,4.24
2023-02-07T11:58:10.237Z,4.28
2023-02-07T12:00:39.775Z,4.31
2023-02-07T12:03:18.221Z,4.36
2023-02-07T12:05:51.844Z,4.41
2023-02-07T12:08:24.233Z,4.46
2023-02-07T12:10:57.049Z,4.51
2023-02-07T12:13:30.533Z,4.57
2023-02-07T12:16:03.454Z,4.59
2023-02-07T12:18:35.541Z,4.65
2023-02-07T12:21:13.447Z,4.69
2023-02-07T12:23:47.997Z,4.72
2023-02-07T12:26:24.052Z,4.76
2023-02-07T12:29:13.132Z,4.79
2023-02-07T12:31:52.226Z,4.83
2023-02-07T12:34:28.849Z,4.87
2023-02-07T12:37:04.438Z,4.92
2023-02-07T12:39:37.857Z,4.95
2023-02-07T12:42:26.198Z,5.01
2023-02-07T12:44:58.614Z,5.06
2023-02-07T12:47:41.844Z,5.12
2023-02-07T12:50:22.295Z,5.17
2023-02-07T12:53:05.577Z,5.20
2023-02-07T12:55:44.800Z,5.22
2023-02-07T12:58:28.851Z,5.24
2023-02-07T13:01:02.919Z,5.30
2023-02-07T13:03:48.771Z,5.35
2023-02-07T13:06:30.954Z,5.42
2023-02-07T13:09:07.560Z,5.48
2023-02-07T13:11:41.212Z,5.54
2023-02-07T13:14:23.593Z,5.59
2023-02-07T13:17:02.937Z,5.66
2023-02-07T13:19:41.152Z,5.71
2023-02-07T13:22:15.533Z,5.77
2023-02-07T13:24:45.654Z,5.84
2023-02-07T13:27:20.595Z,5.93
2023-02-07T13:29:52.218Z,6.01
2023-02-07T13:32:24.693Z,6.09
2023-02-07T13:34:59.789Z,6.15
2023-02-07T13:37:35.953Z,6.22
2023-02-07T13:40:20.908Z,6.29
2023-02-07T13:42:52.058Z,6.37
2023-02-07T13:45:31.103Z,6.44
2023-02-07T13:48:05.867Z,6.50
2023-02-07T13:50:44.057Z,6.57
2023-02-07T13:53:28.894Z,6.63
2023-02-07T13:56:03.501Z,6.68
2023-02-07T13:59:11.055Z,6.76
2023-02-07T14:01:50.254Z,6.84
2023-02-07T14:04:19.430Z,6.91
2023-02-07T14:07:01.502Z,6.97
2023-02-07T14:09:35.730Z,7.04
2023-02-07T14:12:06.496Z,7.10
2023-02-07T14:14:36.793Z,7.18
2023-02-07T14:17:08.335Z,7.24
2023-02-07T14:19:54.776Z,7.33
2023-02-07T14:22:26.784Z,7.41
2023-02-07T14:25:20.579Z,7.53
2023-02-07T14:28:30.185Z,7.62
2023-02-07T14:31:02.646Z,7.72
2023-02-07T14:33:35.852Z,7.80
2023-02-07T14:36:21.492Z,7.91
2023-02-07T14:39:23.575Z,8.05
2023-02-07T14:41:53.319Z,8.15
2023-02-07T14:44:25.749Z,8.27
2023-02-07T14:46:57.877Z,8.40
2023-02-07T14:49:33.553Z,8.54
2023-02-07T14:52:06.919Z,8.68
2023-02-07T14:54:44.503Z,8.81
2023-02-07T14:57:26.156Z,8.93
2023-02-07T15:00:01.335Z,8.99
2023-02-07T15:02:34.622Z,9.03
2023-02-07T15:05:23.489Z,9.02
2023-02-07T15:07:58.187Z,8.93
2023-02-07T15:10:28.837Z,8.80
2023-02-07T15:12:57.666Z,8.67
2023-02-07T15:15:28.478Z,8.52
2023-02-07T15:18:00.124Z,8.38
2023-02-07T15:20:32.537Z,8.24
2023-02-07T15:23:04.398Z,8.10
2023-02-07T15:25:33.075Z,7.96
2023-02-07T15:28:03.557Z,7.82
2023-02-07T15:30:32.965Z,7.68
2023-02-07T15:33:02.343Z,7.54
2023-02-07T15:35:39.664Z,7.43
2023-02-07T15:38:17.068Z,7.30
2023-02-07T15:40:45.612Z,7.19
2023-02-07T15:43:30.183Z,7.08
2023-02-07T15:46:08.730Z,6.98
2023-02-07T15:48:49.456Z,6.86
2023-02-07T15:51:22.213Z,6.76
2023-02-07T15:53:52.088Z,6.66
2023-02-07T15:56:22.911Z,6.57
2023-02-07T15:58:51.860Z,6.47
2023-02-07T16:01:25.154Z,6.37
2023-02-07T16:03:56.626Z,6.28
2023-02-07T16:06:28.288Z,6.18
2023-02-07T16:08:58.469Z,6.11
2023-02-07T16:11:38.397Z,6.03
2023-02-07T16:14:17.905Z,5.95
2023-02-07T16:16:55.038Z,5.83
2023-02-07T16:19:27.332Z,5.73
2023-02-07T16:22:06.578Z,5.63
2023-02-07T16:24:37.651Z,5.51
2023-02-07T16:27:06.622Z,5.40
2023-02-07T16:29:37.152Z,5.31
2023-02-07T16:32:05.909Z,5.22
2023-02-07T16:34:34.254Z,5.13
2023-02-07T16:37:04.191Z,5.05
2023-02-07T16:39:32.533Z,4.95
2023-02-07T16:42:05.987Z,4.86
2023-02-07T16:44:35.989Z,4.78
2023-02-07T16:47:04.545Z,4.69
2023-02-07T17:35:10.932Z,3.35
2023-02-07T17:37:40.642Z,3.28
2023-02-07T17:40:21.984Z,3.22
2023-02-07T17:42:51.789Z,3.17
2023-02-07T17:45:27.392Z,3.16
2023-02-07T17:47:57.518Z,3.09
2023-02-07T17:50:32.012Z,3.03
2023-02-07T17:53:01.421Z,2.97
2023-02-07T17:55:35.656Z,2.92
2023-02-07T17:58:07.623Z,2.86
2023-02-07T18:00:39.121Z,2.79
2023-02-07T18:03:09.212Z,2.74
2023-02-07T18:05:42.000Z,2.69
2023-02-07T18:08:12.187Z,2.64
2023-02-07T18:10:41.407Z,2.57
2023-02-07T18:13:09.987Z,2.51
2023-02-07T18:15:40.890Z,2.45
2023-02-07T18:18:11.352Z,2.37
2023-02-07T18:20:41.726Z,2.30
2023-02-07T18:23:11.954Z,2.24
2023-02-07T18:25:40.730Z,2.17
2023-02-07T18:28:09.217Z,2.11
2023-02-07T18:30:40.144Z,2.05
2023-02-07T18:33:13.422Z,2.00
2023-02-07T18:35:43.553Z,1.93
2023-02-07T18:38:15.357Z,1.88
2023-02-07T18:40:43.775Z,1.82
2023-02-07T18:43:12.182Z,1.76
2023-02-07T18:45:42.006Z,1.71
2023-02-07T18:48:10.692Z,1.67
2023-02-07T18:50:44.665Z,1.63
2023-02-07T18:53:13.688Z,1.59
2023-02-07T18:55:42.363Z,1.53
2023-02-07T18:58:11.178Z,1.47
2023-02-07T19:00:43.281Z,1.44
2023-02-07T19:03:11.961Z,1.39
2023-02-07T19:05:41.253Z,1.36
2023-02-07T19:08:11.952Z,1.33
2023-02-07T19:10:40.577Z,1.29
2023-02-07T19:13:09.135Z,1.26
2023-02-07T19:15:37.978Z,1.22
2023-02-07T19:18:06.543Z,1.17
2023-02-07T19:20:35.123Z,1.15
2023-02-07T19:23:03.584Z,1.11
2023-02-07T19:25:36.897Z,1.08
2023-02-07T19:28:05.930Z,1.05
2023-02-07T19:30:34.335Z,1.03
2023-02-07T19:33:02.977Z,1.00
2023-02-07T19:35:32.853Z,0.99
2023-02-07T19:38:01.353Z,0.96
2023-02-07T19:40:29.762Z,0.94
2023-02-07T19:42:59.617Z,0.93
2023-02-07T19:45:28.485Z,0.91
2023-02-07T19:47:56.916Z,0.91
2023-02-07T19:50:28.130Z,0.87
2023-02-07T19:52:57.511Z,0.85
2023-02-07T19:55:27.116Z,0.82
2023-02-07T19:57:55.620Z,0.78
2023-02-07T20:00:25.451Z,0.77
2023-02-07T20:02:53.757Z,0.74
2023-02-07T20:05:22.395Z,0.73
2023-02-07T20:07:50.708Z,0.68
2023-02-07T20:10:19.292Z,0.65
2023-02-07T20:12:51.903Z,0.60
2023-02-07T20:15:20.465Z,0.57
2023-02-07T20:17:50.398Z,0.54
2023-02-07T20:20:18.844Z,0.53
2023-02-07T20:22:47.527Z,0.51
2023-02-07T20:25:16.304Z,0.50
2023-02-07T20:27:44.808Z,0.47
2023-02-07T20:30:16.411Z,0.45
2023-02-07T20:32:46.393Z,0.42
2023-02-07T20:35:19.082Z,0.40
2023-02-07T20:37:53.835Z,0.37
2023-02-07T20:40:22.393Z,0.35
2023-02-07T20:42:52.687Z,0.34
2023-02-07T20:45:23.851Z,0.32
2023-02-07T20:47:52.641Z,0.30
2023-02-07T20:50:25.165Z,0.27
2023-02-07T20:52:55.430Z,0.22
2023-02-07T20:55:30.296Z,0.23
2023-02-07T20:57:59.481Z,0.20
2023-02-07T21:00:30.746Z,0.18
2023-02-07T21:03:05.449Z,0.15
2023-02-07T21:05:43.726Z,0.13
2023-02-07T21:08:13.342Z,0.10
2023-02-07T21:10:42.428Z,0.09
2023-02-07T21:13:11.685Z,0.07
2023-02-07T21:15:40.255Z,0.05
2023-02-07T21:18:08.649Z,0.03
2023-02-07T21:20:40.300Z,0.02
2023-02-07T21:23:08.833Z,0.02
2023-02-07T21:25:39.725Z,0.00
2023-02-07T21:28:09.574Z,-0.01
2023-02-07T21:30:38.623Z,-0.03
2023-02-07T21:33:08.314Z,-0.06
2023-02-07T21:35:41.442Z,-0.07
2023-02-07T21:38:10.353Z,-0.09
2023-02-07T21:40:39.211Z,-0.12
2023-02-07T21:43:07.713Z,-0.15
2023-02-07T21:45:38.379Z,-0.17
2023-02-07T21:48:07.417Z,-0.18
2023-02-07T21:50:36.041Z,-0.20
2023-02-07T21:53:05.780Z,-0.22
2023-02-07T21:55:35.001Z,-0.24
2023-02-07T21:58:03.264Z,-0.25
2023-02-07T22:00:31.714Z,-0.28
2023-02-07T22:03:00.091Z,-0.28
2023-02-07T22:05:28.524Z,-0.30
2023-02-07T22:07:56.810Z,-0.30
2023-02-07T22:10:26.432Z,-0.33
2023-02-07T22:12:54.747Z,-0.32
2023-02-07T22:15:23.093Z,-0.35
2023-02-07T22:17:51.434Z,-0.36
2023-02-07T22:20:19.993Z,-0.37
2023-02-07T22:22:48.321Z,-0.40
2023-02-07T22:25:16.861Z,-0.42
2023-02-07T22:27:46.638Z,-0.44
2023-02-07T22:30:15.122Z,-0.48
2023-02-07T22:32:43.489Z,-0.49
2023-02-07T22:35:11.866Z,-0.51
2023-02-07T22:37:40.298Z,-0.54
2023-02-07T22:40:09.177Z,-0.56
2023-02-07T22:42:37.519Z,-0.59
2023-02-07T22:45:08.053Z,-0.61
2023-02-07T22:47:36.430Z,-0.66
2023-02-07T22:50:04.892Z,-0.68
2023-02-07T22:52:34.468Z,-0.70
2023-02-07T22:55:02.860Z,-0.71
2023-02-07T22:57:32.065Z,-0.76
2023-02-07T23:00:01.011Z,-0.77
2023-02-07T23:02:31.103Z,-0.78
2023-02-07T23:04:59.494Z,-0.79
2023-02-07T23:07:27.828Z,-0.81
2023-02-07T23:09:56.227Z,-0.83
2023-02-07T23:12:24.637Z,-0.85
2023-02-07T23:14:53.298Z,-0.89
2023-02-07T23:17:21.707Z,-0.89
2023-02-07T23:19:51.443Z,-0.91
2023-02-07T23:22:19.838Z,-0.92
2023-02-07T23:24:48.599Z,-0.93
2023-02-07T23:27:17.110Z,-0.96
2023-02-07T23:29:45.514Z,-0.97
2023-02-07T23:32:13.966Z,-0.96
2023-02-07T23:34:42.246Z,-0.97
2023-02-07T23:37:11.892Z,-0.98
2023-02-07T23:39:40.201Z,-0.97
2023-02-07T23:42:10.422Z,-0.98
2023-02-07T23:44:38.988Z,-0.98
2023-02-07T23:47:07.495Z,-0.97
2023-02-07T23:49:35.919Z,-0.97
2023-02-07T23:52:04.324Z,-0.97
2023-02-07T23:54:34.220Z,-0.97
2023-02-07T23:57:02.532Z,-0.97
2023-02-07T23:59:34.044Z,-0.97
